createdAt,value
2018-04-23T00:00:01.329Z,1005.30
2018-04-23T00:01:04.057Z,1005.34
2018-04-23T00:02:01.411Z,1005.33
2018-04-23T00:03:00.716Z,1005.34
2018-04-23T00:04:02.159Z,1005.32
2018-04-23T00:05:01.121Z,1005.32
2018-04-23T00:06:02.659Z,1005.31
2018-04-23T00:07:00.380Z,1005.31
2018-04-23T00:08:01.969Z,1005.32
2018-04-23T00:09:00.666Z,1005.26
2018-04-23T00:10:00.749Z,1005.23
2018-04-23T00:11:02.703Z,1005.19
2018-04-23T00:12:02.811Z,1005.18
2018-04-23T00:13:01.076Z,1005.11
2018-04-23T00:14:00.263Z,1005.13
2018-04-23T00:15:01.403Z,1005.12
2018-04-23T00:16:00.118Z,1005.07
2018-04-23T00:17:00.499Z,1005.04
2018-04-23T00:18:01.623Z,1004.99
2018-04-23T00:19:04.361Z,1005.00
2018-04-23T00:20:07.479Z,1004.97
2018-04-23T00:21:00.679Z,1005.01
2018-04-23T00:22:00.681Z,1005.01
2018-04-23T00:23:01.288Z,1005.04
2018-04-23T00:24:01.212Z,1005.08
2018-04-23T00:25:03.203Z,1005.10
2018-04-23T00:26:02.203Z,1005.21
2018-04-23T00:27:00.531Z,1005.27
2018-04-23T00:28:02.220Z,1005.48
2018-04-23T00:29:01.805Z,1005.58
2018-04-23T00:30:02.735Z,1005.63
2018-04-23T00:31:01.673Z,1005.65
2018-04-23T00:32:01.215Z,1005.65
2018-04-23T00:33:02.051Z,1005.60
2018-04-23T00:34:01.015Z,1005.65
2018-04-23T00:35:00.134Z,1005.69
2018-04-23T00:36:04.476Z,1005.70
2018-04-23T00:37:00.563Z,1005.67
2018-04-23T00:38:02.298Z,1005.74
2018-04-23T00:39:02.080Z,1005.68
2018-04-23T00:40:01.357Z,1005.67
2018-04-23T00:41:02.418Z,1005.63
2018-04-23T00:42:03.678Z,1005.67
2018-04-23T00:43:04.975Z,1005.61
2018-04-23T00:44:08.471Z,1005.65
2018-04-23T00:45:01.744Z,1005.61
2018-04-23T00:46:02.277Z,1005.63
2018-04-23T00:47:06.978Z,1005.69
2018-04-23T00:48:07.264Z,1005.66
2018-04-23T00:49:08.947Z,1005.65
2018-04-23T00:50:07.933Z,1005.63
2018-04-23T00:51:06.927Z,1005.59
2018-04-23T00:52:06.176Z,1005.54
2018-04-23T00:53:02.247Z,1005.44
2018-04-23T00:54:01.687Z,1005.40
2018-04-23T00:55:01.886Z,1005.33
2018-04-23T00:56:00.735Z,1005.23
2018-04-23T00:57:02.952Z,1005.25
2018-04-23T00:58:01.777Z,1005.32
2018-04-23T00:59:01.300Z,1005.35
2018-04-23T01:00:04.175Z,1005.44
2018-04-23T01:01:02.692Z,1005.38
2018-04-23T01:02:03.286Z,1005.39
2018-04-23T01:03:02.161Z,1005.44
2018-04-23T01:04:03.200Z,1005.47
2018-04-23T01:05:00.424Z,1005.49
2018-04-23T01:06:01.261Z,1005.55
2018-04-23T01:07:01.920Z,1005.55
2018-04-23T01:08:03.208Z,1005.51
2018-04-23T01:09:01.936Z,1005.59
2018-04-23T01:10:02.923Z,1005.57
2018-04-23T01:11:02.600Z,1005.59
2018-04-23T01:12:01.850Z,1005.51
2018-04-23T01:13:03.212Z,1005.55
2018-04-23T01:14:02.226Z,1005.54
2018-04-23T01:15:00.708Z,1005.49
2018-04-23T01:16:03.088Z,1005.50
2018-04-23T01:17:02.006Z,1005.50
2018-04-23T01:18:02.053Z,1005.45
2018-04-23T01:19:01.790Z,1005.48
2018-04-23T01:20:03.218Z,1005.48
2018-04-23T01:21:01.942Z,1005.48
2018-04-23T01:22:01.736Z,1005.45
2018-04-23T01:23:02.805Z,1005.49
2018-04-23T01:24:04.168Z,1005.53
2018-04-23T01:25:03.541Z,1005.51
2018-04-23T01:26:00.806Z,1005.48
2018-04-23T01:27:03.479Z,1005.51
2018-04-23T01:28:01.967Z,1005.50
2018-04-23T01:29:09.624Z,1005.52
2018-04-23T01:30:00.843Z,1005.54
2018-04-23T01:31:01.229Z,1005.54
2018-04-23T01:32:03.085Z,1005.54
2018-04-23T01:33:00.827Z,1005.60
2018-04-23T01:34:01.592Z,1005.66
2018-04-23T01:35:01.692Z,1005.68
2018-04-23T01:36:02.284Z,1005.74
2018-04-23T01:37:03.250Z,1005.76
2018-04-23T01:38:02.423Z,1005.73
2018-04-23T01:39:03.973Z,1005.74
2018-04-23T01:40:03.705Z,1005.74
2018-04-23T01:41:00.420Z,1005.71
2018-04-23T01:42:01.548Z,1005.74
2018-04-23T01:43:01.230Z,1005.76
2018-04-23T01:44:01.566Z,1005.76
2018-04-23T01:45:03.811Z,1005.75
2018-04-23T01:46:00.595Z,1005.79
2018-04-23T01:47:01.840Z,1005.83
2018-04-23T01:48:00.943Z,1005.88
2018-04-23T01:49:03.416Z,1005.91
2018-04-23T01:50:05.581Z,1005.89
2018-04-23T01:51:01.208Z,1005.93
2018-04-23T01:52:01.208Z,1005.93
2018-04-23T01:53:00.774Z,1005.90
2018-04-23T01:54:00.792Z,1005.89
2018-04-23T01:55:02.446Z,1005.92
2018-04-23T01:56:01.537Z,1005.91
2018-04-23T01:57:01.232Z,1005.88
2018-04-23T01:58:02.881Z,1005.88
2018-04-23T01:59:02.075Z,1005.84
2018-04-23T02:00:03.333Z,1005.92
2018-04-23T02:01:00.781Z,1005.90
2018-04-23T02:02:00.937Z,1005.87
2018-04-23T02:03:01.216Z,1005.87
2018-04-23T02:04:00.840Z,1005.87
2018-04-23T02:05:01.207Z,1005.87
2018-04-23T02:06:04.784Z,1005.90
2018-04-23T02:07:00.883Z,1005.90
2018-04-23T02:08:02.059Z,1005.86
2018-04-23T02:09:03.255Z,1005.85
2018-04-23T02:10:01.934Z,1005.83
2018-04-23T02:11:01.225Z,1005.81
2018-04-23T02:12:01.656Z,1005.83
2018-04-23T02:13:00.778Z,1005.86
2018-04-23T02:14:02.488Z,1005.87
2018-04-23T02:15:01.218Z,1005.83
2018-04-23T02:16:00.499Z,1005.85
2018-04-23T02:17:03.621Z,1005.86
2018-04-23T02:18:01.222Z,1005.86
2018-04-23T02:19:02.608Z,1005.83
2018-04-23T02:20:02.455Z,1005.88
2018-04-23T02:21:00.620Z,1005.79
2018-04-23T02:22:02.011Z,1005.84
2018-04-23T02:23:01.971Z,1005.80
2018-04-23T02:24:05.225Z,1005.85
2018-04-23T02:25:02.750Z,1005.87
2018-04-23T02:26:01.222Z,1005.88
2018-04-23T02:27:01.216Z,1005.87
2018-04-23T02:28:02.216Z,1005.87
2018-04-23T02:29:03.670Z,1005.86
2018-04-23T02:30:05.545Z,1005.82
2018-04-23T02:31:02.718Z,1005.86
2018-04-23T02:32:03.724Z,1005.81
2018-04-23T02:33:03.618Z,1005.79
2018-04-23T02:34:01.218Z,1005.79
2018-04-23T02:35:00.941Z,1005.80
2018-04-23T02:36:03.866Z,1005.81
2018-04-23T02:37:03.652Z,1005.82
2018-04-23T02:38:01.619Z,1005.84
2018-04-23T02:39:01.183Z,1005.82
2018-04-23T02:40:03.595Z,1005.80
2018-04-23T02:41:01.878Z,1005.80
2018-04-23T02:42:04.490Z,1005.77
2018-04-23T02:43:00.859Z,1005.82
2018-04-23T02:44:00.803Z,1005.81
2018-04-23T02:45:01.771Z,1005.81
2018-04-23T02:46:00.855Z,1005.80
2018-04-23T02:47:02.781Z,1005.78
2018-04-23T02:48:00.719Z,1005.83
2018-04-23T02:49:02.232Z,1005.81
2018-04-23T02:50:01.234Z,1005.82
2018-04-23T02:51:05.330Z,1005.76
2018-04-23T02:52:01.833Z,1005.82
2018-04-23T02:53:01.735Z,1005.83
2018-04-23T02:54:04.605Z,1005.84
2018-04-23T02:55:01.010Z,1005.79
2018-04-23T02:56:01.093Z,1005.82
2018-04-23T02:57:01.036Z,1005.86
2018-04-23T02:58:01.042Z,1005.83
2018-04-23T02:59:02.130Z,1005.83
2018-04-23T03:00:05.935Z,1005.80
2018-04-23T03:01:02.546Z,1005.74
2018-04-23T03:02:02.335Z,1005.83
2018-04-23T03:03:03.295Z,1005.88
2018-04-23T03:04:01.905Z,1005.89
2018-04-23T03:05:03.539Z,1005.85
2018-04-23T03:06:01.320Z,1005.86
2018-04-23T03:07:01.837Z,1005.87
2018-04-23T03:08:01.505Z,1005.87
2018-04-23T03:09:02.469Z,1005.90
2018-04-23T03:10:02.956Z,1005.89
2018-04-23T03:11:01.663Z,1005.93
2018-04-23T03:12:03.971Z,1005.89
2018-04-23T03:13:01.930Z,1005.92
2018-04-23T03:14:01.059Z,1005.90
2018-04-23T03:15:03.552Z,1005.93
2018-04-23T03:16:02.839Z,1005.94
2018-04-23T03:17:02.309Z,1005.97
2018-04-23T03:18:01.432Z,1006.00
2018-04-23T03:19:00.911Z,1006.02
2018-04-23T03:20:01.233Z,1006.05
2018-04-23T03:21:03.488Z,1006.01
2018-04-23T03:22:01.293Z,1006.01
2018-04-23T03:23:02.953Z,1006.06
2018-04-23T03:24:01.950Z,1006.05
2018-04-23T03:25:01.198Z,1006.02
2018-04-23T03:26:01.001Z,1006.06
2018-04-23T03:27:01.257Z,1006.09
2018-04-23T03:28:01.202Z,1006.08
2018-04-23T03:29:01.780Z,1006.12
2018-04-23T03:30:01.794Z,1006.05
2018-04-23T03:31:01.627Z,1006.09
2018-04-23T03:32:06.126Z,1006.08
2018-04-23T03:33:01.740Z,1006.09
2018-04-23T03:34:02.506Z,1006.12
2018-04-23T03:35:01.619Z,1006.09
2018-04-23T03:36:03.565Z,1006.12
2018-04-23T03:37:04.731Z,1006.11
2018-04-23T03:38:03.380Z,1006.08
2018-04-23T03:39:01.032Z,1006.07
2018-04-23T03:40:00.964Z,1006.10
2018-04-23T03:41:01.901Z,1006.11
2018-04-23T03:42:03.011Z,1006.09
2018-04-23T03:43:01.165Z,1006.10
2018-04-23T03:44:00.987Z,1006.09
2018-04-23T03:45:04.520Z,1006.10
2018-04-23T03:46:01.800Z,1006.10
2018-04-23T03:47:02.244Z,1006.11
2018-04-23T03:48:04.282Z,1006.18
2018-04-23T03:49:06.243Z,1006.16
2018-04-23T03:50:01.382Z,1006.22
2018-04-23T03:51:02.209Z,1006.21
2018-04-23T03:52:03.592Z,1006.25
2018-04-23T03:53:01.682Z,1006.25
2018-04-23T03:54:03.599Z,1006.25
2018-04-23T03:55:01.259Z,1006.29
2018-04-23T03:56:04.019Z,1006.31
2018-04-23T03:57:02.706Z,1006.33
2018-04-23T03:58:01.379Z,1006.32
2018-04-23T03:59:01.954Z,1006.35
2018-04-23T04:00:02.192Z,1006.38
2018-04-23T04:01:01.052Z,1006.39
2018-04-23T04:02:02.538Z,1006.38
2018-04-23T04:03:01.487Z,1006.42
2018-04-23T04:04:01.084Z,1006.46
2018-04-23T04:05:02.375Z,1006.47
2018-04-23T04:06:01.755Z,1006.46
2018-04-23T04:07:02.473Z,1006.45
2018-04-23T04:08:01.413Z,1006.43
2018-04-23T04:09:03.818Z,1006.46
2018-04-23T04:10:01.255Z,1006.49
2018-04-23T04:11:02.355Z,1006.50
2018-04-23T04:12:01.990Z,1006.50
2018-04-23T04:13:01.104Z,1006.49
2018-04-23T04:14:02.509Z,1006.49
2018-04-23T04:15:03.064Z,1006.54
2018-04-23T04:16:01.279Z,1006.56
2018-04-23T04:17:01.412Z,1006.65
2018-04-23T04:18:01.329Z,1006.61
2018-04-23T04:19:03.144Z,1006.62
2018-04-23T04:20:02.572Z,1006.60
2018-04-23T04:21:02.351Z,1006.65
2018-04-23T04:22:01.267Z,1006.65
2018-04-23T04:23:02.817Z,1006.64
2018-04-23T04:24:03.508Z,1006.66
2018-04-23T04:25:02.472Z,1006.67
2018-04-23T04:26:04.010Z,1006.70
2018-04-23T04:27:01.772Z,1006.70
2018-04-23T04:28:02.542Z,1006.66
2018-04-23T04:29:01.801Z,1006.68
2018-04-23T04:30:02.470Z,1006.69
2018-04-23T04:31:02.032Z,1006.66
2018-04-23T04:32:01.822Z,1006.70
2018-04-23T04:33:01.428Z,1006.72
2018-04-23T04:34:01.328Z,1006.74
2018-04-23T04:35:01.333Z,1006.71
2018-04-23T04:36:01.592Z,1006.72
2018-04-23T04:37:02.175Z,1006.79
2018-04-23T04:38:01.569Z,1006.81
2018-04-23T04:39:01.887Z,1006.80
2018-04-23T04:40:02.531Z,1006.83
2018-04-23T04:41:02.803Z,1006.84
2018-04-23T04:42:01.795Z,1006.80
2018-04-23T04:43:03.137Z,1006.80
2018-04-23T04:44:01.276Z,1006.81
2018-04-23T04:45:03.446Z,1006.82
2018-04-23T04:46:03.274Z,1006.82
2018-04-23T04:47:02.630Z,1006.81
2018-04-23T04:48:04.488Z,1006.81
2018-04-23T04:49:02.177Z,1006.85
2018-04-23T04:50:01.235Z,1006.85
2018-04-23T04:51:01.166Z,1006.85
2018-04-23T04:52:02.952Z,1006.84
2018-04-23T04:53:02.355Z,1006.83
2018-04-23T04:54:03.774Z,1006.84
2018-04-23T04:55:04.059Z,1006.88
2018-04-23T04:56:01.332Z,1006.87
2018-04-23T04:57:03.920Z,1006.92
2018-04-23T04:58:03.854Z,1006.92
2018-04-23T04:59:03.805Z,1006.94
2018-04-23T05:00:07.286Z,1006.87
2018-04-23T05:01:04.595Z,1006.87
2018-04-23T05:02:03.405Z,1006.85
2018-04-23T05:03:03.277Z,1006.87
2018-04-23T05:04:01.715Z,1006.91
2018-04-23T05:05:04.017Z,1006.96
2018-04-23T05:06:02.315Z,1006.97
2018-04-23T05:07:01.771Z,1007.00
2018-04-23T05:08:04.742Z,1006.98
2018-04-23T05:09:03.253Z,1006.98
2018-04-23T05:10:02.624Z,1007.01
2018-04-23T05:11:04.000Z,1007.03
2018-04-23T05:12:02.328Z,1006.95
2018-04-23T05:13:02.962Z,1007.01
2018-04-23T05:14:02.772Z,1007.00
2018-04-23T05:15:03.466Z,1007.02
2018-04-23T05:16:01.229Z,1007.05
2018-04-23T05:17:03.067Z,1007.05
2018-04-23T05:18:03.025Z,1007.10
2018-04-23T05:19:02.267Z,1007.15
2018-04-23T05:20:03.731Z,1007.09
2018-04-23T05:21:05.181Z,1007.08
2018-04-23T05:22:07.959Z,1007.02
2018-04-23T05:23:02.808Z,1007.03
2018-04-23T05:24:01.255Z,1007.01
2018-04-23T05:25:01.472Z,1007.01
2018-04-23T05:26:01.527Z,1007.04
2018-04-23T05:27:01.784Z,1007.09
2018-04-23T05:28:01.472Z,1007.14
2018-04-23T05:29:01.784Z,1007.21
2018-04-23T05:30:01.404Z,1007.19
2018-04-23T05:31:02.649Z,1007.22
2018-04-23T05:32:01.500Z,1007.23
2018-04-23T05:33:04.330Z,1007.24
2018-04-23T05:34:03.492Z,1007.22
2018-04-23T05:35:04.444Z,1007.22
2018-04-23T05:36:01.571Z,1007.27
2018-04-23T05:37:04.147Z,1007.34
2018-04-23T05:38:03.950Z,1007.36
2018-04-23T05:39:03.939Z,1007.36
2018-04-23T05:40:01.798Z,1007.39
2018-04-23T05:41:02.905Z,1007.36
2018-04-23T05:42:03.711Z,1007.37
2018-04-23T05:43:03.742Z,1007.38
2018-04-23T05:44:02.651Z,1007.42
2018-04-23T05:45:08.422Z,1007.41
2018-04-23T05:46:04.811Z,1007.39
2018-04-23T05:47:04.425Z,1007.41
2018-04-23T05:48:01.924Z,1007.46
2018-04-23T05:49:03.808Z,1007.41
2018-04-23T05:50:02.793Z,1007.42
2018-04-23T05:51:02.077Z,1007.36
2018-04-23T05:52:01.373Z,1007.36
2018-04-23T05:53:03.239Z,1007.39
2018-04-23T05:54:05.419Z,1007.40
2018-04-23T05:55:02.677Z,1007.42
2018-04-23T05:56:01.791Z,1007.46
2018-04-23T05:57:05.309Z,1007.49
2018-04-23T05:58:04.184Z,1007.49
2018-04-23T05:59:01.570Z,1007.48
2018-04-23T06:00:03.690Z,1007.49
2018-04-23T06:01:04.691Z,1007.50
2018-04-23T06:02:04.780Z,1007.55
2018-04-23T06:03:04.442Z,1007.58
2018-04-23T06:04:06.013Z,1007.60
2018-04-23T06:05:05.500Z,1007.59
2018-04-23T06:06:03.694Z,1007.62
2018-04-23T06:07:04.034Z,1007.55
2018-04-23T06:08:02.575Z,1007.60
2018-04-23T06:09:02.680Z,1007.61
2018-04-23T06:10:04.326Z,1007.63
2018-04-23T06:11:04.217Z,1007.59
2018-04-23T06:12:04.736Z,1007.63
2018-04-23T06:13:04.187Z,1007.66
2018-04-23T06:14:02.868Z,1007.64
2018-04-23T06:15:04.747Z,1007.69
2018-04-23T06:16:04.312Z,1007.75
2018-04-23T06:17:03.727Z,1007.77
2018-04-23T06:18:02.273Z,1007.80
2018-04-23T06:19:03.099Z,1007.81
2018-04-23T06:20:04.949Z,1007.80
2018-04-23T06:21:03.533Z,1007.80
2018-04-23T06:22:03.633Z,1007.78
2018-04-23T06:23:04.587Z,1008.00
2018-04-23T06:24:01.421Z,1008.06
2018-04-23T06:25:01.730Z,1007.94
2018-04-23T06:26:01.523Z,1008.05
2018-04-23T06:27:02.416Z,1007.99
2018-04-23T06:28:02.862Z,1007.97
2018-04-23T06:29:03.198Z,1007.95
2018-04-23T06:30:01.986Z,1008.23
2018-04-23T06:31:02.079Z,1008.38
2018-04-23T06:32:01.403Z,1007.99
2018-04-23T06:33:02.245Z,1008.02
2018-04-23T06:34:01.373Z,1008.42
2018-04-23T06:35:01.678Z,1008.43
2018-04-23T06:36:01.537Z,1008.01
2018-04-23T06:37:01.452Z,1007.91
2018-04-23T06:38:03.094Z,1007.90
2018-04-23T06:39:02.539Z,1007.87
2018-04-23T06:40:01.511Z,1007.87
2018-04-23T06:41:02.754Z,1007.89
2018-04-23T06:42:03.960Z,1007.87
2018-04-23T06:43:01.611Z,1007.87
2018-04-23T06:44:01.785Z,1007.89
2018-04-23T06:45:01.392Z,1007.88
2018-04-23T06:46:01.478Z,1007.90
2018-04-23T06:47:01.513Z,1007.86
2018-04-23T06:48:02.387Z,1007.82
2018-04-23T06:49:02.508Z,1007.84
2018-04-23T06:50:01.604Z,1007.93
2018-04-23T06:51:02.897Z,1008.05
2018-04-23T06:52:02.835Z,1008.05
2018-04-23T06:53:01.516Z,1008.19
2018-04-23T06:54:01.631Z,1008.17
2018-04-23T06:55:05.054Z,1008.09
2018-04-23T06:56:02.092Z,1008.07
2018-04-23T06:57:25.318Z,1008.04
2018-04-23T06:58:03.541Z,1007.97
2018-04-23T06:59:02.451Z,1008.01
2018-04-23T07:00:03.524Z,1008.09
2018-04-23T07:01:01.514Z,1008.06
2018-04-23T07:02:01.779Z,1008.04
2018-04-23T07:03:03.535Z,1008.05
2018-04-23T07:04:02.727Z,1008.04
2018-04-23T07:05:01.549Z,1008.05
2018-04-23T07:06:04.979Z,1008.03
2018-04-23T07:07:01.562Z,1008.07
2018-04-23T07:08:04.499Z,1008.15
2018-04-23T07:09:02.786Z,1008.19
2018-04-23T07:10:01.521Z,1008.32
2018-04-23T07:11:04.710Z,1008.54
2018-04-23T07:12:01.930Z,1008.42
2018-04-23T07:13:01.569Z,1008.40
2018-04-23T07:14:02.148Z,1008.58
2018-04-23T07:15:02.590Z,1008.43
2018-04-23T07:16:01.509Z,1008.52
2018-04-23T07:17:01.625Z,1008.37
2018-04-23T07:18:03.465Z,1008.38
2018-04-23T07:19:02.322Z,1008.49
2018-04-23T07:20:01.660Z,1008.86
2018-04-23T07:21:02.555Z,1008.95
2018-04-23T07:22:02.747Z,1008.62
2018-04-23T07:23:01.751Z,1009.03
2018-04-23T07:24:09.783Z,1009.08
2018-04-23T07:25:02.331Z,1009.43
2018-04-23T07:26:01.864Z,1009.28
2018-04-23T07:27:01.786Z,1009.02
2018-04-23T07:28:03.481Z,1009.74
2018-04-23T07:29:01.897Z,1010.08
2018-04-23T07:30:02.395Z,1010.19
2018-04-23T07:31:23.822Z,1010.34
2018-04-23T07:32:08.243Z,1010.00
2018-04-23T07:33:15.610Z,1009.84
2018-04-23T07:34:03.117Z,1008.97
2018-04-23T07:36:27.205Z,1010.01
2018-04-23T07:37:03.611Z,1010.09
2018-04-23T07:38:09.116Z,1010.14
2018-04-23T07:39:06.890Z,1009.87
2018-04-23T07:40:07.832Z,1010.18
2018-04-23T07:41:29.712Z,1010.37
2018-04-23T07:42:02.846Z,1010.46
2018-04-23T07:43:03.233Z,1010.45
2018-04-23T07:44:05.064Z,1010.54
2018-04-23T07:45:07.790Z,1011.09
2018-04-23T07:46:06.153Z,1012.04
2018-04-23T07:47:06.336Z,1013.03
2018-04-23T07:48:01.702Z,1014.40
2018-04-23T07:49:02.360Z,1015.60
2018-04-23T07:50:04.198Z,1016.55
2018-04-23T07:51:02.580Z,1017.73
2018-04-23T07:52:08.387Z,1017.53
2018-04-23T07:53:03.789Z,1018.26
2018-04-23T07:54:02.836Z,1019.84
2018-04-23T07:55:03.643Z,1020.12
2018-04-23T07:56:02.351Z,1021.66
2018-04-23T07:57:02.883Z,1021.85
2018-04-23T07:58:04.092Z,1020.93
2018-04-23T07:59:05.286Z,1022.62
2018-04-23T08:00:02.422Z,1024.52
2018-04-23T08:01:02.336Z,1024.29
2018-04-23T08:02:04.773Z,1024.00
2018-04-23T08:03:04.853Z,1023.57
2018-04-23T08:04:06.939Z,1024.20
2018-04-23T08:05:04.865Z,1024.74
2018-04-23T08:06:02.996Z,1025.15
2018-04-23T08:07:03.782Z,1024.68
2018-04-23T08:08:10.618Z,1026.32
2018-04-23T08:09:04.445Z,1024.46
2018-04-23T08:10:05.016Z,1025.35
2018-04-23T08:12:35.067Z,1021.96
2018-04-23T08:13:40.425Z,1024.75
2018-04-23T08:14:40.870Z,1023.68
2018-04-23T08:15:41.824Z,1023.57
2018-04-23T08:16:40.800Z,1017.08
2018-04-23T08:17:43.475Z,1016.43
2018-04-23T08:18:42.846Z,1014.09
2018-04-23T08:19:41.074Z,1010.52
2018-04-23T08:20:44.464Z,1010.49
2018-04-23T08:21:44.963Z,1010.18
2018-04-23T08:22:44.684Z,1011.15
2018-04-23T08:23:46.198Z,1011.65
2018-04-23T08:24:48.131Z,1011.53
2018-04-23T08:25:45.560Z,1010.79
2018-04-23T08:26:42.117Z,1010.33
2018-04-23T08:33:18.659Z,1010.54
2018-04-23T08:39:37.891Z,1010.89
2018-04-23T08:40:15.993Z,1009.67
2018-04-23T08:42:16.906Z,1010.74
2018-04-23T08:43:16.440Z,1010.25
2018-04-23T08:44:51.769Z,1009.59
2018-04-23T08:45:15.891Z,1010.37
2018-04-23T08:46:15.834Z,1010.80
2018-04-23T08:47:15.837Z,1010.39
2018-04-23T08:48:15.850Z,1009.86
2018-04-23T08:49:15.860Z,1009.84
2018-04-23T08:50:18.345Z,1009.80
2018-04-23T08:51:15.906Z,1010.48
2018-04-23T08:52:16.762Z,1010.45
2018-04-23T08:53:15.878Z,1010.72
2018-04-23T08:54:15.944Z,1010.73
2018-04-23T08:55:15.932Z,1010.55
2018-04-23T08:56:15.973Z,1009.84
2018-04-23T08:57:15.950Z,1010.65
2018-04-23T08:58:16.262Z,1010.67
2018-04-23T08:59:16.196Z,1009.81
2018-04-23T09:00:15.965Z,1010.65
2018-04-23T09:01:16.034Z,1010.54
2018-04-23T09:02:16.100Z,1010.51
2018-04-23T09:03:16.127Z,1010.55
2018-04-23T09:04:16.157Z,1010.17
2018-04-23T09:05:16.038Z,1009.78
2018-04-23T09:06:16.071Z,1010.51
2018-04-23T09:07:16.129Z,1010.48
2018-04-23T09:08:16.348Z,1010.48
2018-04-23T09:09:16.153Z,1010.41
2018-04-23T09:10:16.163Z,1010.56
2018-04-23T09:11:16.137Z,1010.52
2018-04-23T09:12:16.156Z,1010.49
2018-04-23T09:13:16.178Z,1010.54
2018-04-23T09:14:16.254Z,1010.49
2018-04-23T09:15:16.249Z,1010.60
2018-04-23T09:16:16.313Z,1009.96
2018-04-23T09:17:16.621Z,1009.84
2018-04-23T09:18:16.321Z,1009.91
2018-04-23T09:19:16.327Z,1009.85
2018-04-23T09:20:16.444Z,1010.50
2018-04-23T09:21:16.351Z,1010.49
2018-04-23T09:22:16.309Z,1010.55
2018-04-23T09:23:16.348Z,1010.58
2018-04-23T09:24:16.391Z,1010.69
2018-04-23T09:25:17.280Z,1010.03
2018-04-23T09:26:16.416Z,1009.93
2018-04-23T09:27:16.449Z,1010.41
2018-04-23T09:28:16.413Z,1010.16
2018-04-23T09:29:16.474Z,1009.88
2018-04-23T09:30:17.288Z,1009.99
2018-04-23T09:31:16.551Z,1009.86
2018-04-23T09:32:16.524Z,1010.38
2018-04-23T09:33:16.494Z,1010.49
2018-04-23T09:34:16.563Z,1010.47
2018-04-23T09:35:16.531Z,1010.00
2018-04-23T09:36:16.635Z,1010.10
2018-04-23T09:37:16.574Z,1010.11
2018-04-23T09:38:16.646Z,1010.05
2018-04-23T09:39:16.632Z,1009.87
2018-04-23T09:40:16.667Z,1009.92
2018-04-23T09:41:16.672Z,1009.79
2018-04-23T09:42:16.994Z,1009.87
2018-04-23T09:43:16.661Z,1009.83
2018-04-23T09:44:16.759Z,1010.34
2018-04-23T09:45:16.787Z,1010.50
2018-04-23T09:46:16.723Z,1010.45
2018-04-23T09:47:16.801Z,1010.45
2018-04-23T09:48:16.713Z,1010.43
2018-04-23T09:49:16.742Z,1010.46
2018-04-23T09:50:16.819Z,1010.46
2018-04-23T09:51:16.800Z,1010.01
2018-04-23T09:52:16.834Z,1010.55
2018-04-23T09:53:16.869Z,1010.61
2018-04-23T09:54:16.835Z,1010.45
2018-04-23T09:55:16.853Z,1010.55
2018-04-23T09:56:16.876Z,1010.51
2018-04-23T09:57:16.924Z,1010.55
2018-04-23T09:58:16.927Z,1010.57
2018-04-23T09:59:16.934Z,1010.52
2018-04-23T10:00:16.926Z,1010.57
2018-04-23T10:01:16.916Z,1010.61
2018-04-23T10:02:16.981Z,1010.70
2018-04-23T10:03:17.012Z,1010.76
2018-04-23T10:04:17.039Z,1010.79
2018-04-23T10:05:17.067Z,1010.93
2018-04-23T10:06:17.017Z,1010.82
2018-04-23T10:07:17.062Z,1010.66
2018-04-23T10:08:17.034Z,1010.81
2018-04-23T10:09:17.163Z,1010.87
2018-04-23T10:10:17.076Z,1010.14
2018-04-23T10:11:17.100Z,1010.61
2018-04-23T10:12:17.092Z,1010.14
2018-04-23T10:13:17.160Z,1010.89
2018-04-23T10:14:17.177Z,1010.68
2018-04-23T10:15:17.217Z,1010.22
2018-04-23T10:16:17.181Z,1010.22
2018-04-23T10:17:17.200Z,1010.22
2018-04-23T10:18:17.822Z,1010.66
2018-04-23T10:19:17.278Z,1010.20
2018-04-23T10:20:17.234Z,1010.15
2018-04-23T10:21:17.332Z,1010.52
2018-04-23T10:22:17.351Z,1010.60
2018-04-23T10:23:17.308Z,1010.23
2018-04-23T10:24:17.308Z,1010.47
2018-04-23T10:25:17.328Z,1010.46
2018-04-23T10:26:17.831Z,1010.15
2018-04-23T10:27:18.324Z,1010.15
2018-04-23T10:28:17.405Z,1010.46
2018-04-23T10:29:17.391Z,1010.23
2018-04-23T10:30:17.431Z,1010.64
2018-04-23T10:31:17.457Z,1010.16
2018-04-23T10:32:17.460Z,1010.59
2018-04-23T10:33:17.455Z,1010.52
2018-04-23T10:34:17.466Z,1010.17
2018-04-23T10:35:17.488Z,1010.14
2018-04-23T10:36:17.537Z,1010.24
2018-04-23T10:37:18.368Z,1010.14
2018-04-23T10:38:17.565Z,1010.20
2018-04-23T10:39:17.554Z,1010.23
2018-04-23T10:40:17.621Z,1010.18
2018-04-23T10:41:17.599Z,1010.10
2018-04-23T10:42:17.590Z,1010.13
2018-04-23T10:43:17.600Z,1010.07
2018-04-23T10:44:17.619Z,1010.13
2018-04-23T10:45:17.634Z,1010.51
2018-04-23T10:46:17.701Z,1010.17
2018-04-23T10:47:18.335Z,1010.54
2018-04-23T10:48:17.676Z,1010.56
2018-04-23T10:49:17.675Z,1010.60
2018-04-23T10:50:17.711Z,1010.50
2018-04-23T10:51:17.736Z,1010.59
2018-04-23T10:52:18.073Z,1010.61
2018-04-23T10:53:17.774Z,1010.35
2018-04-23T10:54:17.773Z,1010.60
2018-04-23T10:55:17.788Z,1010.59
2018-04-23T10:56:17.779Z,1010.41
2018-04-23T10:57:17.787Z,1010.21
2018-04-23T10:58:17.805Z,1010.21
2018-04-23T10:59:17.816Z,1010.27
2018-04-23T11:00:17.863Z,1010.23
2018-04-23T11:01:17.844Z,1010.16
2018-04-23T11:02:17.859Z,1010.17
2018-04-23T11:03:17.872Z,1010.09
2018-04-23T11:04:17.944Z,1010.14
2018-04-23T11:05:18.433Z,1010.23
2018-04-23T11:06:17.895Z,1010.14
2018-04-23T11:07:17.942Z,1010.14
2018-04-23T11:08:17.939Z,1010.07
2018-04-23T11:09:17.960Z,1010.05
2018-04-23T11:10:18.002Z,1010.07
2018-04-23T11:11:17.963Z,1010.14
2018-04-23T11:12:17.969Z,1010.20
2018-04-23T11:13:18.003Z,1010.14
2018-04-23T11:14:18.016Z,1010.06
2018-04-23T11:15:18.022Z,1010.07
2018-04-23T11:16:18.015Z,1010.04
2018-04-23T11:17:18.049Z,1010.21
2018-04-23T11:18:18.035Z,1010.13
2018-04-23T11:19:18.059Z,1010.11
2018-04-23T11:20:18.161Z,1010.07
2018-04-23T11:21:18.074Z,1010.09
2018-04-23T11:22:18.136Z,1010.07
2018-04-23T11:23:18.080Z,1010.07
2018-04-23T11:24:18.096Z,1010.06
2018-04-23T11:25:18.200Z,1010.02
2018-04-23T11:26:18.109Z,1010.07
2018-04-23T11:27:18.112Z,1010.10
2018-04-23T11:28:18.125Z,1010.10
2018-04-23T11:29:18.137Z,1010.04
2018-04-23T11:30:18.204Z,1010.00
2018-04-23T11:31:18.191Z,1010.08
2018-04-23T11:32:18.162Z,1010.09
2018-04-23T11:33:18.163Z,1010.07
2018-04-23T11:34:18.241Z,1010.10
2018-04-23T11:35:18.230Z,1010.10
2018-04-23T11:36:18.181Z,1010.13
2018-04-23T11:37:18.194Z,1010.08
2018-04-23T11:38:18.220Z,1010.10
2018-04-23T11:39:18.217Z,1010.10
2018-04-23T11:40:18.223Z,1010.07
2018-04-23T11:41:18.285Z,1010.07
2018-04-23T11:42:18.290Z,1010.12
2018-04-23T11:43:18.267Z,1010.12
2018-04-23T11:44:18.242Z,1010.09
2018-04-23T11:45:18.338Z,1010.02
2018-04-23T11:46:18.315Z,1010.01
2018-04-23T11:47:18.321Z,1010.03
2018-04-23T11:48:18.873Z,1010.03
2018-04-23T11:49:18.434Z,1010.03
2018-04-23T11:50:18.334Z,1009.98
2018-04-23T11:51:18.311Z,1010.02
2018-04-23T11:52:18.332Z,1010.00
2018-04-23T11:53:18.315Z,1010.01
2018-04-23T11:54:18.325Z,1010.08
2018-04-23T11:55:18.335Z,1009.94
2018-04-23T11:56:18.398Z,1009.96
2018-04-23T11:57:18.431Z,1009.93
2018-04-23T11:58:18.470Z,1010.01
2018-04-23T11:59:18.436Z,1010.01
2018-04-23T12:00:18.397Z,1009.97
2018-04-23T12:01:18.527Z,1009.88
2018-04-23T12:02:18.495Z,1009.93
2018-04-23T12:03:18.439Z,1009.90
2018-04-23T12:04:18.465Z,1009.91
2018-04-23T12:05:18.438Z,1009.91
2018-04-23T12:06:18.546Z,1009.90
2018-04-23T12:07:18.474Z,1009.90
2018-04-23T12:08:18.477Z,1009.90
2018-04-23T12:09:18.511Z,1009.93
2018-04-23T12:10:18.472Z,1009.98
2018-04-23T12:11:18.582Z,1009.90
2018-04-23T12:12:18.535Z,1009.95
2018-04-23T12:13:18.509Z,1009.89
2018-04-23T12:14:18.500Z,1009.92
2018-04-23T12:15:18.520Z,1009.91
2018-04-23T12:16:18.605Z,1009.93
2018-04-23T12:17:18.525Z,1009.89
2018-04-23T12:18:19.541Z,1009.93
2018-04-23T12:19:18.548Z,1009.98